sensor_id;sensor_type;location;lat;lon;timestamp;P1;durP1;ratioP1;P2;durP2;ratioP2
26710;SDS011;18311;52.754;18.118;2023-02-28T00:01:05;20.25;;;14.05;;
26710;SDS011;18311;52.754;18.118;2023-02-28T00:03:39;22.77;;;15.15;;
26710;SDS011;18311;52.754;18.118;2023-02-28T00:06:12;21.73;;;14.43;;
26710;SDS011;18311;52.754;18.118;2023-02-28T00:08:47;20.68;;;14.05;;
26710;SDS011;18311;52.754;18.118;2023-02-28T00:11:25;19.77;;;14.00;;
26710;SDS011;18311;52.754;18.118;2023-02-28T00:13:58;21.10;;;14.28;;
26710;SDS011;18311;52.754;18.118;2023-02-28T00:16:31;19.00;;;14.13;;
26710;SDS011;18311;52.754;18.118;2023-02-28T00:19:07;20.77;;;14.43;;
26710;SDS011;18311;52.754;18.118;2023-02-28T00:21:39;21.10;;;14.30;;
26710;SDS011;18311;52.754;18.118;2023-02-28T00:24:17;21.07;;;14.47;;
26710;SDS011;18311;52.754;18.118;2023-02-28T00:26:51;19.45;;;14.03;;
26710;SDS011;18311;52.754;18.118;2023-02-28T00:29:23;23.62;;;15.48;;
26710;SDS011;18311;52.754;18.118;2023-02-28T00:32:04;28.40;;;19.10;;
26710;SDS011;18311;52.754;18.118;2023-02-28T00:34:38;27.40;;;18.17;;
26710;SDS011;18311;52.754;18.118;2023-02-28T00:37:12;26.82;;;17.30;;
26710;SDS011;18311;52.754;18.118;2023-02-28T00:39:44;25.43;;;16.57;;
26710;SDS011;18311;52.754;18.118;2023-02-28T00:42:20;26.57;;;15.98;;
26710;SDS011;18311;52.754;18.118;2023-02-28T00:44:57;26.02;;;16.85;;
26710;SDS011;18311;52.754;18.118;2023-02-28T00:47:31;26.82;;;18.00;;
26710;SDS011;18311;52.754;18.118;2023-02-28T00:50:04;25.45;;;16.93;;
26710;SDS011;18311;52.754;18.118;2023-02-28T00:52:37;23.50;;;16.17;;
26710;SDS011;18311;52.754;18.118;2023-02-28T00:55:11;23.50;;;16.65;;
26710;SDS011;18311;52.754;18.118;2023-02-28T00:57:43;23.60;;;15.90;;
26710;SDS011;18311;52.754;18.118;2023-02-28T01:00:17;22.50;;;16.10;;
26710;SDS011;18311;52.754;18.118;2023-02-28T01:02:54;24.75;;;16.52;;
26710;SDS011;18311;52.754;18.118;2023-02-28T01:05:27;26.05;;;16.62;;
26710;SDS011;18311;52.754;18.118;2023-02-28T01:08:01;24.75;;;16.12;;
26710;SDS011;18311;52.754;18.118;2023-02-28T01:10:35;23.80;;;16.70;;
26710;SDS011;18311;52.754;18.118;2023-02-28T01:13:09;24.55;;;16.23;;
26710;SDS011;18311;52.754;18.118;2023-02-28T01:15:45;24.05;;;16.20;;
26710;SDS011;18311;52.754;18.118;2023-02-28T01:18:21;23.57;;;16.75;;
26710;SDS011;18311;52.754;18.118;2023-02-28T01:20:55;23.40;;;16.60;;
26710;SDS011;18311;52.754;18.118;2023-02-28T01:23:28;21.68;;;15.20;;
26710;SDS011;18311;52.754;18.118;2023-02-28T01:26:05;23.52;;;16.25;;
26710;SDS011;18311;52.754;18.118;2023-02-28T01:28:40;24.12;;;17.42;;
26710;SDS011;18311;52.754;18.118;2023-02-28T01:31:17;23.67;;;18.10;;
26710;SDS011;18311;52.754;18.118;2023-02-28T01:33:52;23.98;;;17.35;;
26710;SDS011;18311;52.754;18.118;2023-02-28T01:36:28;23.22;;;17.75;;
26710;SDS011;18311;52.754;18.118;2023-02-28T01:39:01;23.40;;;17.32;;
26710;SDS011;18311;52.754;18.118;2023-02-28T01:41:35;24.82;;;17.92;;
26710;SDS011;18311;52.754;18.118;2023-02-28T01:47:18;26.15;;;18.45;;
26710;SDS011;18311;52.754;18.118;2023-02-28T01:49:50;26.35;;;21.17;;
26710;SDS011;18311;52.754;18.118;2023-02-28T01:52:26;27.13;;;20.92;;
26710;SDS011;18311;52.754;18.118;2023-02-28T01:54:59;25.43;;;18.52;;
26710;SDS011;18311;52.754;18.118;2023-02-28T01:57:38;24.92;;;17.87;;
26710;SDS011;18311;52.754;18.118;2023-02-28T02:00:11;25.65;;;18.07;;
26710;SDS011;18311;52.754;18.118;2023-02-28T02:02:45;24.00;;;17.55;;
26710;SDS011;18311;52.754;18.118;2023-02-28T02:05:20;23.83;;;16.75;;
26710;SDS011;18311;52.754;18.118;2023-02-28T02:07:55;22.82;;;16.77;;
26710;SDS011;18311;52.754;18.118;2023-02-28T02:10:39;23.60;;;17.35;;
26710;SDS011;18311;52.754;18.118;2023-02-28T02:13:31;23.62;;;17.23;;
26710;SDS011;18311;52.754;18.118;2023-02-28T02:24:35;27.65;;;18.35;;
26710;SDS011;18311;52.754;18.118;2023-02-28T02:38:05;25.05;;;18.42;;
26710;SDS011;18311;52.754;18.118;2023-02-28T02:40:39;26.05;;;17.55;;
26710;SDS011;18311;52.754;18.118;2023-02-28T02:43:17;31.17;;;21.12;;
26710;SDS011;18311;52.754;18.118;2023-02-28T02:45:52;28.87;;;20.40;;
26710;SDS011;18311;52.754;18.118;2023-02-28T02:48:29;31.62;;;21.95;;
26710;SDS011;18311;52.754;18.118;2023-02-28T02:51:03;30.50;;;21.63;;
26710;SDS011;18311;52.754;18.118;2023-02-28T02:53:40;27.13;;;19.50;;
26710;SDS011;18311;52.754;18.118;2023-02-28T02:56:14;26.45;;;19.65;;
26710;SDS011;18311;52.754;18.118;2023-02-28T02:58:47;25.02;;;18.40;;
26710;SDS011;18311;52.754;18.118;2023-02-28T03:01:22;26.02;;;18.95;;
26710;SDS011;18311;52.754;18.118;2023-02-28T03:03:59;25.23;;;18.35;;
26710;SDS011;18311;52.754;18.118;2023-02-28T03:06:31;25.50;;;18.92;;
26710;SDS011;18311;52.754;18.118;2023-02-28T03:09:03;23.85;;;17.85;;
26710;SDS011;18311;52.754;18.118;2023-02-28T03:11:34;28.15;;;19.12;;
26710;SDS011;18311;52.754;18.118;2023-02-28T03:14:26;24.60;;;18.00;;
26710;SDS011;18311;52.754;18.118;2023-02-28T03:20:01;25.15;;;19.65;;
26710;SDS011;18311;52.754;18.118;2023-02-28T03:25:47;29.27;;;19.48;;
26710;SDS011;18311;52.754;18.118;2023-02-28T03:28:20;30.15;;;20.50;;
26710;SDS011;18311;52.754;18.118;2023-02-28T03:33:53;39.98;;;27.48;;
26710;SDS011;18311;52.754;18.118;2023-02-28T03:36:37;36.38;;;25.43;;
26710;SDS011;18311;52.754;18.118;2023-02-28T03:42:11;31.87;;;22.58;;
26710;SDS011;18311;52.754;18.118;2023-02-28T03:44:49;29.52;;;21.55;;
26710;SDS011;18311;52.754;18.118;2023-02-28T03:47:25;30.55;;;23.15;;
26710;SDS011;18311;52.754;18.118;2023-02-28T03:49:58;33.08;;;23.27;;
26710;SDS011;18311;52.754;18.118;2023-02-28T03:52:41;37.08;;;24.80;;
26710;SDS011;18311;52.754;18.118;2023-02-28T03:55:13;39.67;;;27.63;;
26710;SDS011;18311;52.754;18.118;2023-02-28T03:58:05;36.08;;;25.70;;
26710;SDS011;18311;52.754;18.118;2023-02-28T04:00:45;33.42;;;24.52;;
26710;SDS011;18311;52.754;18.118;2023-02-28T04:03:20;34.20;;;23.92;;
26710;SDS011;18311;52.754;18.118;2023-02-28T04:05:55;41.68;;;30.37;;
26710;SDS011;18311;52.754;18.118;2023-02-28T04:08:23;42.38;;;30.25;;
26710;SDS011;18311;52.754;18.118;2023-02-28T04:10:59;38.45;;;28.77;;
26710;SDS011;18311;52.754;18.118;2023-02-28T04:13:28;41.13;;;26.93;;
26710;SDS011;18311;52.754;18.118;2023-02-28T04:15:58;34.35;;;24.95;;
26710;SDS011;18311;52.754;18.118;2023-02-28T04:18:29;40.20;;;28.50;;
26710;SDS011;18311;52.754;18.118;2023-02-28T04:21:00;42.35;;;28.57;;
26710;SDS011;18311;52.754;18.118;2023-02-28T04:23:30;38.13;;;27.58;;
26710;SDS011;18311;52.754;18.118;2023-02-28T04:26:01;38.25;;;27.17;;
26710;SDS011;18311;52.754;18.118;2023-02-28T04:28:32;32.93;;;24.37;;
26710;SDS011;18311;52.754;18.118;2023-02-28T04:31:03;32.35;;;23.67;;
26710;SDS011;18311;52.754;18.118;2023-02-28T04:33:35;34.98;;;24.10;;
26710;SDS011;18311;52.754;18.118;2023-02-28T04:36:06;37.73;;;27.15;;
26710;SDS011;18311;52.754;18.118;2023-02-28T04:38:38;46.15;;;33.23;;
26710;SDS011;18311;52.754;18.118;2023-02-28T04:41:08;51.83;;;37.67;;
26710;SDS011;18311;52.754;18.118;2023-02-28T04:43:39;49.58;;;37.23;;
26710;SDS011;18311;52.754;18.118;2023-02-28T04:46:10;44.85;;;32.38;;
26710;SDS011;18311;52.754;18.118;2023-02-28T04:48:40;36.10;;;26.42;;
26710;SDS011;18311;52.754;18.118;2023-02-28T04:51:13;37.30;;;27.58;;
26710;SDS011;18311;52.754;18.118;2023-02-28T04:53:45;42.60;;;32.78;;
26710;SDS011;18311;52.754;18.118;2023-02-28T04:56:16;41.83;;;30.35;;
26710;SDS011;18311;52.754;18.118;2023-02-28T04:58:48;42.05;;;30.30;;
26710;SDS011;18311;52.754;18.118;2023-02-28T05:01:22;43.95;;;32.63;;
26710;SDS011;18311;52.754;18.118;2023-02-28T05:03:57;40.83;;;32.33;;
26710;SDS011;18311;52.754;18.118;2023-02-28T05:06:32;36.58;;;26.62;;
26710;SDS011;18311;52.754;18.118;2023-02-28T05:09:03;36.45;;;26.20;;
26710;SDS011;18311;52.754;18.118;2023-02-28T05:11:33;37.35;;;25.37;;
26710;SDS011;18311;52.754;18.118;2023-02-28T05:14:06;35.20;;;25.75;;
26710;SDS011;18311;52.754;18.118;2023-02-28T05:16:42;38.88;;;28.23;;
26710;SDS011;18311;52.754;18.118;2023-02-28T05:19:13;37.98;;;26.40;;
26710;SDS011;18311;52.754;18.118;2023-02-28T05:21:55;38.90;;;26.02;;
26710;SDS011;18311;52.754;18.118;2023-02-28T05:24:24;37.08;;;24.50;;
26710;SDS011;18311;52.754;18.118;2023-02-28T05:26:55;41.20;;;27.15;;
26710;SDS011;18311;52.754;18.118;2023-02-28T05:29:27;37.15;;;26.55;;
26710;SDS011;18311;52.754;18.118;2023-02-28T05:31:58;35.90;;;26.37;;
26710;SDS011;18311;52.754;18.118;2023-02-28T05:34:29;39.35;;;27.05;;
26710;SDS011;18311;52.754;18.118;2023-02-28T05:36:59;36.83;;;26.33;;
26710;SDS011;18311;52.754;18.118;2023-02-28T05:39:30;35.28;;;27.70;;
26710;SDS011;18311;52.754;18.118;2023-02-28T05:42:01;35.33;;;26.23;;
26710;SDS011;18311;52.754;18.118;2023-02-28T05:44:31;34.13;;;25.25;;
26710;SDS011;18311;52.754;18.118;2023-02-28T05:47:02;34.33;;;25.43;;
26710;SDS011;18311;52.754;18.118;2023-02-28T05:49:32;38.70;;;25.27;;
26710;SDS011;18311;52.754;18.118;2023-02-28T05:52:03;31.68;;;24.60;;
26710;SDS011;18311;52.754;18.118;2023-02-28T05:54:34;33.28;;;24.20;;
26710;SDS011;18311;52.754;18.118;2023-02-28T05:57:04;35.65;;;24.92;;
26710;SDS011;18311;52.754;18.118;2023-02-28T05:59:38;36.95;;;25.85;;
26710;SDS011;18311;52.754;18.118;2023-02-28T06:02:14;35.52;;;23.87;;
26710;SDS011;18311;52.754;18.118;2023-02-28T06:04:42;32.30;;;24.20;;
26710;SDS011;18311;52.754;18.118;2023-02-28T06:07:13;32.63;;;24.70;;
26710;SDS011;18311;52.754;18.118;2023-02-28T06:09:45;32.60;;;24.63;;
26710;SDS011;18311;52.754;18.118;2023-02-28T06:12:16;33.88;;;24.55;;
26710;SDS011;18311;52.754;18.118;2023-02-28T06:14:47;36.73;;;28.02;;
26710;SDS011;18311;52.754;18.118;2023-02-28T06:17:18;37.35;;;27.55;;
26710;SDS011;18311;52.754;18.118;2023-02-28T06:19:48;35.70;;;26.85;;
26710;SDS011;18311;52.754;18.118;2023-02-28T06:22:19;36.50;;;26.57;;
26710;SDS011;18311;52.754;18.118;2023-02-28T06:24:49;35.38;;;26.10;;
26710;SDS011;18311;52.754;18.118;2023-02-28T06:27:21;34.90;;;25.57;;
26710;SDS011;18311;52.754;18.118;2023-02-28T06:29:53;36.77;;;24.95;;
26710;SDS011;18311;52.754;18.118;2023-02-28T06:32:25;37.33;;;26.42;;
26710;SDS011;18311;52.754;18.118;2023-02-28T06:34:56;36.63;;;25.80;;
26710;SDS011;18311;52.754;18.118;2023-02-28T06:37:26;34.55;;;24.75;;
26710;SDS011;18311;52.754;18.118;2023-02-28T06:39:57;36.08;;;25.57;;
26710;SDS011;18311;52.754;18.118;2023-02-28T06:42:28;37.38;;;27.00;;
26710;SDS011;18311;52.754;18.118;2023-02-28T06:44:59;36.93;;;28.60;;
26710;SDS011;18311;52.754;18.118;2023-02-28T06:47:31;36.93;;;28.10;;
26710;SDS011;18311;52.754;18.118;2023-02-28T06:50:03;33.10;;;28.15;;
26710;SDS011;18311;52.754;18.118;2023-02-28T06:52:35;40.43;;;29.48;;
26710;SDS011;18311;52.754;18.118;2023-02-28T06:55:08;34.58;;;27.55;;
26710;SDS011;18311;52.754;18.118;2023-02-28T06:57:38;34.35;;;27.45;;
26710;SDS011;18311;52.754;18.118;2023-02-28T07:00:09;38.83;;;29.18;;
26710;SDS011;18311;52.754;18.118;2023-02-28T07:02:42;39.33;;;29.92;;
26710;SDS011;18311;52.754;18.118;2023-02-28T07:05:13;37.42;;;29.15;;
26710;SDS011;18311;52.754;18.118;2023-02-28T07:07:43;42.50;;;29.50;;
26710;SDS011;18311;52.754;18.118;2023-02-28T07:10:15;38.75;;;29.42;;
26710;SDS011;18311;52.754;18.118;2023-02-28T07:12:49;44.83;;;31.12;;
26710;SDS011;18311;52.754;18.118;2023-02-28T07:15:20;39.48;;;28.77;;
26710;SDS011;18311;52.754;18.118;2023-02-28T07:17:50;37.65;;;28.47;;
26710;SDS011;18311;52.754;18.118;2023-02-28T07:20:21;39.48;;;27.98;;
26710;SDS011;18311;52.754;18.118;2023-02-28T07:22:52;38.65;;;28.27;;
26710;SDS011;18311;52.754;18.118;2023-02-28T07:25:26;41.83;;;29.45;;
26710;SDS011;18311;52.754;18.118;2023-02-28T07:27:58;46.42;;;30.77;;
26710;SDS011;18311;52.754;18.118;2023-02-28T07:30:28;43.85;;;29.45;;
26710;SDS011;18311;52.754;18.118;2023-02-28T07:32:59;40.38;;;29.72;;
26710;SDS011;18311;52.754;18.118;2023-02-28T07:35:30;41.92;;;29.67;;
26710;SDS011;18311;52.754;18.118;2023-02-28T07:38:01;41.10;;;29.10;;
26710;SDS011;18311;52.754;18.118;2023-02-28T07:40:32;39.25;;;29.35;;
26710;SDS011;18311;52.754;18.118;2023-02-28T07:43:04;38.10;;;28.77;;
26710;SDS011;18311;52.754;18.118;2023-02-28T07:45:34;40.85;;;29.65;;
26710;SDS011;18311;52.754;18.118;2023-02-28T07:48:05;39.35;;;27.87;;
26710;SDS011;18311;52.754;18.118;2023-02-28T07:50:37;36.75;;;28.17;;
26710;SDS011;18311;52.754;18.118;2023-02-28T07:53:08;39.85;;;29.25;;
26710;SDS011;18311;52.754;18.118;2023-02-28T07:55:38;47.58;;;36.10;;
26710;SDS011;18311;52.754;18.118;2023-02-28T07:58:09;50.17;;;36.23;;
26710;SDS011;18311;52.754;18.118;2023-02-28T08:00:42;48.60;;;38.10;;
26710;SDS011;18311;52.754;18.118;2023-02-28T08:03:16;51.92;;;37.65;;
26710;SDS011;18311;52.754;18.118;2023-02-28T08:05:48;50.20;;;36.28;;
26710;SDS011;18311;52.754;18.118;2023-02-28T08:08:22;46.77;;;34.50;;
26710;SDS011;18311;52.754;18.118;2023-02-28T08:10:52;42.33;;;32.85;;
26710;SDS011;18311;52.754;18.118;2023-02-28T08:13:24;42.17;;;30.60;;
26710;SDS011;18311;52.754;18.118;2023-02-28T08:15:55;35.73;;;28.12;;
26710;SDS011;18311;52.754;18.118;2023-02-28T08:18:28;34.05;;;26.25;;
26710;SDS011;18311;52.754;18.118;2023-02-28T08:20:58;33.80;;;24.60;;
26710;SDS011;18311;52.754;18.118;2023-02-28T08:23:30;31.02;;;23.70;;
26710;SDS011;18311;52.754;18.118;2023-02-28T08:26:02;33.55;;;24.95;;
26710;SDS011;18311;52.754;18.118;2023-02-28T08:28:33;33.78;;;24.57;;
26710;SDS011;18311;52.754;18.118;2023-02-28T08:31:07;32.85;;;24.02;;
26710;SDS011;18311;52.754;18.118;2023-02-28T08:33:39;32.35;;;23.18;;
26710;SDS011;18311;52.754;18.118;2023-02-28T08:36:11;33.42;;;24.45;;
26710;SDS011;18311;52.754;18.118;2023-02-28T08:38:42;30.82;;;24.52;;
26710;SDS011;18311;52.754;18.118;2023-02-28T08:41:13;32.58;;;24.82;;
26710;SDS011;18311;52.754;18.118;2023-02-28T08:43:43;29.45;;;23.25;;
26710;SDS011;18311;52.754;18.118;2023-02-28T08:46:15;30.32;;;23.77;;
26710;SDS011;18311;52.754;18.118;2023-02-28T08:48:46;32.25;;;24.12;;
26710;SDS011;18311;52.754;18.118;2023-02-28T08:51:17;34.63;;;24.23;;
26710;SDS011;18311;52.754;18.118;2023-02-28T08:53:49;32.30;;;23.95;;
26710;SDS011;18311;52.754;18.118;2023-02-28T08:56:19;31.37;;;23.95;;
26710;SDS011;18311;52.754;18.118;2023-02-28T08:58:50;29.72;;;23.47;;
26710;SDS011;18311;52.754;18.118;2023-02-28T09:01:27;33.53;;;23.60;;
26710;SDS011;18311;52.754;18.118;2023-02-28T09:04:00;30.52;;;23.05;;
26710;SDS011;18311;52.754;18.118;2023-02-28T09:06:30;29.87;;;22.70;;
26710;SDS011;18311;52.754;18.118;2023-02-28T09:09:02;30.80;;;22.65;;
26710;SDS011;18311;52.754;18.118;2023-02-28T09:11:35;31.73;;;23.70;;
26710;SDS011;18311;52.754;18.118;2023-02-28T09:14:05;35.13;;;24.47;;
26710;SDS011;18311;52.754;18.118;2023-02-28T09:16:36;35.83;;;25.20;;
26710;SDS011;18311;52.754;18.118;2023-02-28T09:19:10;33.20;;;24.50;;
26710;SDS011;18311;52.754;18.118;2023-02-28T09:21:42;31.62;;;23.70;;
26710;SDS011;18311;52.754;18.118;2023-02-28T09:24:13;34.67;;;23.00;;
26710;SDS011;18311;52.754;18.118;2023-02-28T09:26:44;30.02;;;23.00;;
26710;SDS011;18311;52.754;18.118;2023-02-28T09:29:16;28.23;;;21.42;;
26710;SDS011;18311;52.754;18.118;2023-02-28T09:31:46;28.17;;;20.95;;
26710;SDS011;18311;52.754;18.118;2023-02-28T09:34:18;28.12;;;21.35;;
26710;SDS011;18311;52.754;18.118;2023-02-28T09:36:48;33.70;;;23.32;;
26710;SDS011;18311;52.754;18.118;2023-02-28T09:39:22;30.37;;;23.52;;
26710;SDS011;18311;52.754;18.118;2023-02-28T09:41:55;31.60;;;23.42;;
26710;SDS011;18311;52.754;18.118;2023-02-28T09:44:29;32.10;;;24.02;;
26710;SDS011;18311;52.754;18.118;2023-02-28T09:47:50;33.20;;;23.52;;
26710;SDS011;18311;52.754;18.118;2023-02-28T09:49:44;32.00;;;23.90;;
26710;SDS011;18311;52.754;18.118;2023-02-28T09:52:20;30.15;;;21.68;;
26710;SDS011;18311;52.754;18.118;2023-02-28T09:54:52;34.18;;;23.80;;
26710;SDS011;18311;52.754;18.118;2023-02-28T10:00:24;28.98;;;21.52;;
26710;SDS011;18311;52.754;18.118;2023-02-28T10:03:13;26.17;;;20.43;;
26710;SDS011;18311;52.754;18.118;2023-02-28T10:05:43;26.40;;;20.15;;
26710;SDS011;18311;52.754;18.118;2023-02-28T10:08:24;28.95;;;21.50;;
26710;SDS011;18311;52.754;18.118;2023-02-28T10:10:57;29.90;;;22.07;;
26710;SDS011;18311;52.754;18.118;2023-02-28T10:13:37;29.85;;;22.85;;
26710;SDS011;18311;52.754;18.118;2023-02-28T10:16:30;33.23;;;23.90;;
26710;SDS011;18311;52.754;18.118;2023-02-28T10:19:03;34.23;;;25.15;;
26710;SDS011;18311;52.754;18.118;2023-02-28T10:21:47;31.90;;;22.30;;
26710;SDS011;18311;52.754;18.118;2023-02-28T10:24:32;25.45;;;20.57;;
26710;SDS011;18311;52.754;18.118;2023-02-28T10:27:09;30.23;;;20.32;;
26710;SDS011;18311;52.754;18.118;2023-02-28T10:29:48;27.17;;;19.52;;
26710;SDS011;18311;52.754;18.118;2023-02-28T10:32:23;27.05;;;18.67;;
26710;SDS011;18311;52.754;18.118;2023-02-28T10:35:23;22.75;;;16.73;;
26710;SDS011;18311;52.754;18.118;2023-02-28T10:37:57;22.95;;;17.52;;
26710;SDS011;18311;52.754;18.118;2023-02-28T10:40:35;24.55;;;18.05;;
26710;SDS011;18311;52.754;18.118;2023-02-28T10:45:56;20.25;;;16.40;;
26710;SDS011;18311;52.754;18.118;2023-02-28T10:48:42;18.87;;;15.48;;
26710;SDS011;18311;52.754;18.118;2023-02-28T10:51:40;18.12;;;14.75;;
26710;SDS011;18311;52.754;18.118;2023-02-28T10:54:28;21.70;;;16.23;;
26710;SDS011;18311;52.754;18.118;2023-02-28T10:59:52;25.20;;;19.57;;
26710;SDS011;18311;52.754;18.118;2023-02-28T11:02:37;24.12;;;20.30;;
26710;SDS011;18311;52.754;18.118;2023-02-28T11:05:27;23.32;;;18.95;;
26710;SDS011;18311;52.754;18.118;2023-02-28T11:08:03;25.92;;;20.32;;
26710;SDS011;18311;52.754;18.118;2023-02-28T11:10:46;31.12;;;22.45;;
26710;SDS011;18311;52.754;18.118;2023-02-28T11:13:19;32.63;;;22.20;;
26710;SDS011;18311;52.754;18.118;2023-02-28T11:15:58;29.75;;;21.60;;
26710;SDS011;18311;52.754;18.118;2023-02-28T11:18:33;30.82;;;20.25;;
26710;SDS011;18311;52.754;18.118;2023-02-28T11:21:01;32.10;;;20.97;;
26710;SDS011;18311;52.754;18.118;2023-02-28T11:23:33;34.50;;;20.55;;
26710;SDS011;18311;52.754;18.118;2023-02-28T11:26:06;31.27;;;20.35;;
26710;SDS011;18311;52.754;18.118;2023-02-28T11:28:41;29.30;;;19.95;;
26710;SDS011;18311;52.754;18.118;2023-02-28T11:36:22;27.60;;;16.80;;
26710;SDS011;18311;52.754;18.118;2023-02-28T11:39:04;22.42;;;15.13;;
26710;SDS011;18311;52.754;18.118;2023-02-28T11:41:46;22.48;;;15.00;;
26710;SDS011;18311;52.754;18.118;2023-02-28T11:46:58;20.23;;;13.88;;
26710;SDS011;18311;52.754;18.118;2023-02-28T11:49:53;16.75;;;10.53;;
26710;SDS011;18311;52.754;18.118;2023-02-28T12:17:17;11.00;;;8.03;;
26710;SDS011;18311;52.754;18.118;2023-02-28T12:28:19;13.32;;;8.70;;
26710;SDS011;18311;52.754;18.118;2023-02-28T12:30:58;11.85;;;8.35;;
26710;SDS011;18311;52.754;18.118;2023-02-28T12:33:34;17.77;;;10.18;;
26710;SDS011;18311;52.754;18.118;2023-02-28T12:36:11;15.48;;;10.55;;
26710;SDS011;18311;52.754;18.118;2023-02-28T12:38:41;16.02;;;10.23;;
26710;SDS011;18311;52.754;18.118;2023-02-28T12:41:22;15.75;;;11.10;;
26710;SDS011;18311;52.754;18.118;2023-02-28T12:43:55;17.10;;;10.80;;
26710;SDS011;18311;52.754;18.118;2023-02-28T12:46:46;19.07;;;11.48;;
26710;SDS011;18311;52.754;18.118;2023-02-28T12:49:08;16.85;;;11.78;;
26710;SDS011;18311;52.754;18.118;2023-02-28T12:51:39;15.13;;;10.70;;
26710;SDS011;18311;52.754;18.118;2023-02-28T12:54:12;14.47;;;9.58;;
26710;SDS011;18311;52.754;18.118;2023-02-28T12:56:46;13.78;;;8.38;;
26710;SDS011;18311;52.754;18.118;2023-02-28T13:05:15;11.12;;;7.53;;
26710;SDS011;18311;52.754;18.118;2023-02-28T13:08:41;11.45;;;8.00;;
26710;SDS011;18311;52.754;18.118;2023-02-28T13:10:59;14.55;;;8.63;;
26710;SDS011;18311;52.754;18.118;2023-02-28T13:13:31;13.65;;;9.00;;
26710;SDS011;18311;52.754;18.118;2023-02-28T13:16:03;13.90;;;8.75;;
26710;SDS011;18311;52.754;18.118;2023-02-28T13:18:39;13.00;;;9.18;;
26710;SDS011;18311;52.754;18.118;2023-02-28T13:21:27;15.68;;;9.70;;
26710;SDS011;18311;52.754;18.118;2023-02-28T13:24:03;16.70;;;8.83;;
26710;SDS011;18311;52.754;18.118;2023-02-28T13:34:38;11.85;;;7.75;;
26710;SDS011;18311;52.754;18.118;2023-02-28T13:42:49;13.18;;;8.93;;
26710;SDS011;18311;52.754;18.118;2023-02-28T13:45:25;12.18;;;8.83;;
26710;SDS011;18311;52.754;18.118;2023-02-28T13:48:00;13.32;;;8.55;;
26710;SDS011;18311;52.754;18.118;2023-02-28T13:50:35;11.40;;;8.20;;
26710;SDS011;18311;52.754;18.118;2023-02-28T14:01:24;13.22;;;8.43;;
26710;SDS011;18311;52.754;18.118;2023-02-28T14:06:54;15.55;;;8.70;;
26710;SDS011;18311;52.754;18.118;2023-02-28T14:17:57;15.60;;;9.98;;
26710;SDS011;18311;52.754;18.118;2023-02-28T14:20:34;14.40;;;9.15;;
26710;SDS011;18311;52.754;18.118;2023-02-28T14:23:07;16.75;;;11.20;;
26710;SDS011;18311;52.754;18.118;2023-02-28T14:25:51;13.60;;;9.78;;
26710;SDS011;18311;52.754;18.118;2023-02-28T14:31:38;12.18;;;9.00;;
26710;SDS011;18311;52.754;18.118;2023-02-28T14:34:17;15.48;;;9.03;;
26710;SDS011;18311;52.754;18.118;2023-02-28T14:39:33;16.48;;;10.30;;
26710;SDS011;18311;52.754;18.118;2023-02-28T14:42:24;17.57;;;10.03;;
26710;SDS011;18311;52.754;18.118;2023-02-28T14:44:56;17.07;;;9.75;;
26710;SDS011;18311;52.754;18.118;2023-02-28T14:47:28;13.62;;;8.35;;
26710;SDS011;18311;52.754;18.118;2023-02-28T14:50:03;13.45;;;8.88;;
26710;SDS011;18311;52.754;18.118;2023-02-28T14:52:34;14.53;;;9.55;;
26710;SDS011;18311;52.754;18.118;2023-02-28T14:55:06;15.38;;;9.63;;
26710;SDS011;18311;52.754;18.118;2023-02-28T14:57:41;13.35;;;9.60;;
26710;SDS011;18311;52.754;18.118;2023-02-28T15:00:14;15.53;;;9.75;;
26710;SDS011;18311;52.754;18.118;2023-02-28T15:02:52;14.43;;;9.98;;
26710;SDS011;18311;52.754;18.118;2023-02-28T15:05:28;18.40;;;10.30;;
26710;SDS011;18311;52.754;18.118;2023-02-28T15:08:12;19.98;;;11.70;;
26710;SDS011;18311;52.754;18.118;2023-02-28T15:10:36;18.10;;;10.38;;
26710;SDS011;18311;52.754;18.118;2023-02-28T15:13:11;15.85;;;12.15;;
26710;SDS011;18311;52.754;18.118;2023-02-28T15:21:21;18.75;;;11.57;;
26710;SDS011;18311;52.754;18.118;2023-02-28T15:23:56;19.27;;;12.85;;
26710;SDS011;18311;52.754;18.118;2023-02-28T15:27:04;22.17;;;13.28;;
26710;SDS011;18311;52.754;18.118;2023-02-28T15:29:15;18.73;;;12.78;;
26710;SDS011;18311;52.754;18.118;2023-02-28T15:31:52;19.05;;;12.28;;
26710;SDS011;18311;52.754;18.118;2023-02-28T15:34:34;18.05;;;11.97;;
26710;SDS011;18311;52.754;18.118;2023-02-28T15:40:13;17.17;;;11.53;;
26710;SDS011;18311;52.754;18.118;2023-02-28T15:42:58;16.32;;;11.08;;
26710;SDS011;18311;52.754;18.118;2023-02-28T15:45:41;18.27;;;12.18;;
26710;SDS011;18311;52.754;18.118;2023-02-28T15:50:52;18.07;;;11.45;;
26710;SDS011;18311;52.754;18.118;2023-02-28T15:53:28;17.67;;;12.50;;
26710;SDS011;18311;52.754;18.118;2023-02-28T15:56:05;16.93;;;12.18;;
26710;SDS011;18311;52.754;18.118;2023-02-28T15:58:37;16.67;;;12.45;;
26710;SDS011;18311;52.754;18.118;2023-02-28T16:04:03;18.20;;;12.98;;
26710;SDS011;18311;52.754;18.118;2023-02-28T16:06:37;15.95;;;11.20;;
26710;SDS011;18311;52.754;18.118;2023-02-28T16:09:12;15.30;;;11.30;;
26710;SDS011;18311;52.754;18.118;2023-02-28T16:11:44;13.62;;;10.50;;
26710;SDS011;18311;52.754;18.118;2023-02-28T16:14:21;17.12;;;11.03;;
26710;SDS011;18311;52.754;18.118;2023-02-28T16:16:57;18.23;;;11.68;;
26710;SDS011;18311;52.754;18.118;2023-02-28T16:19:37;18.50;;;11.97;;
26710;SDS011;18311;52.754;18.118;2023-02-28T16:22:09;17.25;;;11.75;;
26710;SDS011;18311;52.754;18.118;2023-02-28T16:24:41;19.15;;;12.33;;
26710;SDS011;18311;52.754;18.118;2023-02-28T16:27:18;19.92;;;14.95;;
26710;SDS011;18311;52.754;18.118;2023-02-28T16:29:58;21.68;;;15.58;;
26710;SDS011;18311;52.754;18.118;2023-02-28T16:32:30;24.20;;;16.35;;
26710;SDS011;18311;52.754;18.118;2023-02-28T16:35:05;25.43;;;16.37;;
26710;SDS011;18311;52.754;18.118;2023-02-28T16:37:37;27.85;;;17.67;;
26710;SDS011;18311;52.754;18.118;2023-02-28T16:40:20;30.72;;;18.35;;
26710;SDS011;18311;52.754;18.118;2023-02-28T16:42:48;39.98;;;21.15;;
26710;SDS011;18311;52.754;18.118;2023-02-28T16:45:22;30.50;;;18.55;;
26710;SDS011;18311;52.754;18.118;2023-02-28T16:47:54;37.08;;;24.77;;
26710;SDS011;18311;52.754;18.118;2023-02-28T16:50:27;26.80;;;17.40;;
26710;SDS011;18311;52.754;18.118;2023-02-28T16:52:59;24.92;;;15.30;;
26710;SDS011;18311;52.754;18.118;2023-02-28T16:55:29;23.55;;;16.87;;
26710;SDS011;18311;52.754;18.118;2023-02-28T16:58:00;29.18;;;20.20;;
26710;SDS011;18311;52.754;18.118;2023-02-28T17:00:32;28.50;;;20.60;;
26710;SDS011;18311;52.754;18.118;2023-02-28T17:03:02;29.02;;;20.52;;
26710;SDS011;18311;52.754;18.118;2023-02-28T17:05:35;22.42;;;16.35;;
26710;SDS011;18311;52.754;18.118;2023-02-28T17:08:09;22.45;;;15.13;;
26710;SDS011;18311;52.754;18.118;2023-02-28T17:10:40;23.98;;;15.28;;
26710;SDS011;18311;52.754;18.118;2023-02-28T17:13:11;25.30;;;16.00;;
26710;SDS011;18311;52.754;18.118;2023-02-28T17:15:44;24.37;;;15.85;;